createdAt,value
2022-08-20T00:00:51.432Z,15.63
2022-08-20T00:03:56.910Z,14.50
2022-08-20T00:06:49.990Z,14.30
2022-08-20T00:09:40.136Z,14.27
2022-08-20T00:12:46.958Z,14.67
2022-08-20T00:15:38.098Z,13.77
2022-08-20T00:18:27.882Z,13.43
2022-08-20T00:21:21.310Z,13.77
2022-08-20T00:24:13.467Z,13.57
2022-08-20T00:27:03.752Z,12.93
2022-08-20T00:29:52.023Z,13.07
2022-08-20T00:32:47.559Z,13.27
2022-08-20T00:35:56.856Z,12.70
2022-08-20T00:38:49.411Z,12.20
2022-08-20T00:41:40.422Z,12.10
2022-08-20T00:44:34.952Z,11.53
2022-08-20T00:47:23.543Z,11.70
2022-08-20T00:50:18.535Z,10.53
2022-08-20T00:53:08.556Z,9.10
2022-08-20T00:55:58.513Z,9.77
2022-08-20T00:58:50.956Z,9.27
2022-08-20T01:01:55.178Z,9.50
2022-08-20T01:04:52.638Z,9.93
2022-08-20T01:07:50.041Z,8.80
2022-08-20T01:10:52.412Z,9.00
2022-08-20T01:13:43.834Z,8.90
2022-08-20T01:16:33.909Z,8.93
2022-08-20T01:19:29.735Z,8.10
2022-08-20T01:22:58.750Z,9.33
2022-08-20T01:25:50.570Z,7.83
2022-08-20T01:28:43.535Z,7.87
2022-08-20T01:31:34.180Z,7.27
2022-08-20T01:34:22.571Z,8.10
2022-08-20T01:37:10.941Z,7.40
2022-08-20T01:39:59.333Z,7.40
2022-08-20T01:42:58.507Z,7.13
2022-08-20T01:45:57.308Z,6.67
2022-08-20T01:49:13.570Z,6.43
2022-08-20T01:52:09.876Z,5.80
2022-08-20T01:54:59.410Z,6.53
2022-08-20T01:57:49.479Z,6.10
2022-08-20T02:00:52.366Z,6.00
2022-08-20T02:03:59.277Z,6.63
2022-08-20T02:06:56.675Z,5.50
2022-08-20T02:09:47.487Z,6.37
2022-08-20T02:12:35.789Z,5.97
2022-08-20T02:15:37.211Z,6.23
2022-08-20T02:18:25.782Z,5.57
2022-08-20T02:21:15.459Z,6.20
2022-08-20T02:24:06.001Z,6.00
2022-08-20T02:26:57.715Z,5.80
2022-08-20T02:29:46.734Z,6.13
2022-08-20T02:32:40.765Z,6.40
2022-08-20T02:35:30.088Z,5.63
2022-08-20T02:38:18.630Z,5.40
2022-08-20T02:41:13.395Z,5.53
2022-08-20T02:44:01.647Z,6.10
2022-08-20T02:46:50.053Z,6.00
2022-08-20T02:49:49.471Z,5.67
2022-08-20T02:52:51.642Z,5.70
2022-08-20T02:55:43.922Z,5.50
2022-08-20T02:58:35.291Z,6.13
2022-08-20T03:01:30.922Z,5.37
2022-08-20T03:04:24.089Z,5.77
2022-08-20T03:07:19.442Z,5.90
2022-08-20T03:10:20.112Z,5.73
2022-08-20T03:13:26.016Z,6.00
2022-08-20T03:16:15.596Z,5.63
2022-08-20T03:19:08.551Z,6.10
2022-08-20T03:21:56.823Z,6.20
2022-08-20T03:24:54.042Z,6.30
2022-08-20T03:27:54.600Z,6.27
2022-08-20T03:31:00.590Z,6.30
2022-08-20T03:36:56.545Z,7.23
2022-08-20T03:39:49.202Z,7.57
2022-08-20T03:42:43.003Z,7.20
2022-08-20T03:45:32.514Z,8.10
2022-08-20T03:48:23.779Z,7.53
2022-08-20T03:51:12.000Z,10.00
2022-08-20T03:54:00.765Z,8.80
2022-08-20T03:56:58.157Z,7.23
2022-08-20T03:59:46.462Z,8.53
2022-08-20T04:02:57.223Z,7.67
2022-08-20T04:05:46.702Z,8.70
2022-08-20T04:08:48.373Z,9.50
2022-08-20T04:11:37.506Z,11.03
2022-08-20T04:14:29.315Z,9.60
2022-08-20T04:17:19.784Z,12.60
2022-08-20T04:20:16.034Z,11.40
2022-08-20T04:23:06.723Z,10.80
2022-08-20T04:25:58.460Z,10.97
2022-08-20T04:28:46.936Z,10.10
2022-08-20T04:31:38.192Z,9.70
2022-08-20T04:34:32.332Z,11.17
2022-08-20T04:37:41.999Z,10.30
2022-08-20T04:40:59.004Z,10.90
2022-08-20T04:44:07.207Z,11.50
2022-08-20T04:47:07.953Z,10.30
2022-08-20T04:53:16.231Z,10.97
2022-08-20T04:56:19.732Z,12.40
2022-08-20T04:59:12.159Z,12.63
2022-08-20T05:02:02.535Z,11.80
2022-08-20T05:04:52.822Z,12.10
2022-08-20T05:08:20.116Z,13.40
2022-08-20T05:11:32.764Z,12.23
2022-08-20T05:14:18.961Z,11.43
2022-08-20T05:17:25.828Z,12.13
2022-08-20T05:20:25.336Z,11.70
2022-08-20T05:23:15.496Z,11.13
2022-08-20T05:26:07.356Z,12.03
2022-08-20T05:29:00.029Z,12.20
2022-08-20T05:32:05.072Z,11.37
2022-08-20T05:35:07.589Z,11.77
2022-08-20T05:37:56.088Z,11.97
2022-08-20T05:40:49.092Z,12.40
2022-08-20T05:43:41.713Z,12.13
2022-08-20T05:46:58.576Z,13.17
2022-08-20T05:50:01.158Z,10.83
2022-08-20T05:52:52.474Z,12.07
2022-08-20T05:55:41.013Z,12.00
2022-08-20T05:58:32.828Z,11.77
2022-08-20T06:01:23.762Z,11.97
2022-08-20T06:04:29.205Z,11.17
2022-08-20T06:07:17.957Z,11.67
2022-08-20T06:10:10.764Z,12.03
2022-08-20T06:13:02.941Z,10.90
2022-08-20T06:15:51.206Z,12.20
2022-08-20T06:18:39.527Z,11.13
2022-08-20T06:21:28.149Z,10.90
2022-08-20T06:24:16.365Z,11.90
2022-08-20T06:27:06.957Z,11.23
2022-08-20T06:29:55.854Z,10.63
2022-08-20T06:32:44.132Z,10.47
2022-08-20T06:35:32.904Z,10.20
2022-08-20T06:38:21.300Z,10.10
2022-08-20T06:41:09.525Z,10.30
2022-08-20T06:44:00.496Z,11.30
2022-08-20T06:46:48.665Z,11.07
2022-08-20T06:49:37.757Z,10.70
2022-08-20T06:52:51.913Z,11.37
2022-08-20T06:55:34.610Z,10.80
2022-08-20T06:58:36.208Z,9.87
2022-08-20T07:01:28.234Z,10.20
2022-08-20T07:04:16.777Z,9.63
2022-08-20T07:07:07.510Z,10.63
2022-08-20T07:10:00.687Z,9.13
2022-08-20T07:12:50.962Z,9.93
2022-08-20T07:15:39.929Z,9.80
2022-08-20T07:18:29.568Z,8.90
2022-08-20T07:21:18.310Z,7.73
2022-08-20T07:24:06.857Z,8.60
2022-08-20T07:26:56.987Z,8.47
2022-08-20T07:30:02.727Z,8.80
2022-08-20T07:32:53.432Z,7.57
2022-08-20T07:35:48.747Z,7.00
2022-08-20T07:38:37.035Z,6.33
2022-08-20T07:41:30.971Z,6.90
2022-08-20T07:44:21.599Z,6.07
2022-08-20T07:47:20.107Z,5.60
2022-08-20T07:50:10.010Z,6.23
2022-08-20T07:53:00.488Z,6.67
2022-08-20T07:55:51.164Z,6.80
2022-08-20T07:58:52.993Z,5.70
2022-08-20T08:01:41.259Z,5.93
2022-08-20T08:04:30.515Z,5.40
2022-08-20T08:07:18.964Z,5.80
2022-08-20T08:10:12.823Z,4.80
2022-08-20T08:13:05.450Z,4.90
2022-08-20T08:15:57.357Z,4.20
2022-08-20T08:18:56.252Z,4.37
2022-08-20T08:21:45.346Z,4.57
2022-08-20T08:24:35.168Z,4.97
2022-08-20T08:27:24.840Z,4.30
2022-08-20T08:30:13.903Z,4.37
2022-08-20T08:33:19.463Z,4.80
2022-08-20T08:36:10.642Z,3.90
2022-08-20T08:38:58.932Z,4.23
2022-08-20T08:41:49.569Z,4.13
2022-08-20T08:44:42.786Z,4.27
2022-08-20T08:47:35.889Z,3.67
2022-08-20T08:50:50.130Z,3.87
2022-08-20T08:53:39.945Z,3.23
2022-08-20T08:56:30.714Z,2.60
2022-08-20T08:59:21.283Z,2.80
2022-08-20T09:02:22.428Z,2.83
2022-08-20T09:05:17.347Z,3.17
2022-08-20T09:08:16.729Z,3.13
2022-08-20T09:11:08.960Z,3.00
2022-08-20T09:13:57.486Z,3.20
2022-08-20T09:16:52.983Z,2.90
2022-08-20T09:19:46.507Z,2.83
2022-08-20T09:22:34.814Z,3.00
2022-08-20T09:25:26.417Z,3.60
2022-08-20T09:28:14.647Z,3.13
2022-08-20T09:31:03.356Z,3.13
2022-08-20T09:33:53.499Z,2.90
2022-08-20T09:36:43.053Z,3.60
2022-08-20T09:39:31.313Z,3.13
2022-08-20T09:42:23.775Z,3.03
2022-08-20T09:45:13.211Z,3.10
2022-08-20T09:48:01.481Z,3.27
2022-08-20T09:50:50.497Z,2.90
2022-08-20T09:53:40.166Z,2.93
2022-08-20T09:56:29.158Z,2.83
2022-08-20T09:59:17.546Z,2.73
2022-08-20T10:02:08.845Z,2.87
2022-08-20T10:04:57.553Z,2.97
2022-08-20T10:07:45.801Z,3.73
2022-08-20T10:10:39.074Z,3.37
2022-08-20T10:13:29.502Z,2.77
2022-08-20T10:16:17.697Z,3.33
2022-08-20T10:19:06.657Z,2.83
2022-08-20T10:21:57.507Z,3.17
2022-08-20T10:24:45.710Z,3.30
2022-08-20T10:27:36.797Z,3.57
2022-08-20T10:30:27.673Z,3.20
2022-08-20T10:33:15.933Z,3.50
2022-08-20T10:36:08.101Z,3.30
2022-08-20T10:38:56.284Z,3.13
2022-08-20T10:41:44.537Z,3.53
2022-08-20T10:44:35.684Z,3.20
2022-08-20T10:47:26.319Z,3.37
2022-08-20T10:50:20.045Z,3.00
2022-08-20T10:53:08.345Z,2.80
2022-08-20T10:55:57.564Z,3.07
2022-08-20T10:58:45.773Z,2.97
2022-08-20T11:01:36.958Z,2.93
2022-08-20T11:04:25.331Z,3.20
2022-08-20T11:07:16.287Z,3.00
2022-08-20T11:10:09.296Z,2.90
2022-08-20T11:13:00.088Z,3.10
2022-08-20T11:15:48.378Z,3.30
2022-08-20T11:18:38.042Z,2.73
2022-08-20T11:21:29.321Z,2.50
2022-08-20T11:24:18.924Z,2.73
2022-08-20T11:27:08.662Z,2.70
2022-08-20T11:29:57.085Z,2.50
2022-08-20T11:32:45.429Z,2.77
2022-08-20T11:35:49.448Z,2.00
2022-08-20T11:38:38.373Z,1.97
2022-08-20T11:41:26.578Z,2.27
2022-08-20T11:44:21.091Z,2.70
2022-08-20T11:47:20.272Z,2.13
2022-08-20T11:50:11.575Z,2.30
2022-08-20T11:53:01.576Z,2.10
2022-08-20T11:55:56.960Z,2.00
2022-08-20T11:58:46.012Z,1.83
2022-08-20T12:01:34.231Z,2.33
2022-08-20T12:04:23.713Z,1.70
2022-08-20T12:07:16.932Z,1.70
2022-08-20T12:10:09.889Z,2.00
2022-08-20T12:12:58.678Z,1.73
2022-08-20T12:15:47.022Z,2.07
2022-08-20T12:18:35.234Z,2.03
2022-08-20T12:21:23.517Z,1.70
2022-08-20T12:24:11.736Z,1.80
2022-08-20T12:27:11.286Z,2.20
2022-08-20T12:30:02.562Z,1.73
2022-08-20T12:32:50.930Z,1.83
2022-08-20T12:35:39.211Z,1.70
2022-08-20T12:38:32.412Z,1.30
2022-08-20T12:41:23.259Z,1.60
2022-08-20T12:44:13.243Z,1.50
2022-08-20T12:47:10.427Z,1.47
2022-08-20T12:50:05.193Z,1.37
2022-08-20T12:52:53.413Z,1.10
2022-08-20T12:55:43.325Z,1.60
2022-08-20T12:58:31.554Z,1.60
2022-08-20T13:01:21.181Z,1.20
2022-08-20T13:04:09.456Z,1.50
2022-08-20T13:07:01.762Z,1.40
2022-08-20T13:09:50.042Z,1.40
2022-08-20T13:12:38.594Z,1.63
2022-08-20T13:15:27.077Z,1.10
2022-08-20T13:18:16.698Z,1.90
2022-08-20T13:21:05.037Z,1.30
2022-08-20T13:23:55.577Z,1.30
2022-08-20T13:26:43.843Z,1.60
2022-08-20T13:29:32.026Z,1.80
2022-08-20T13:32:20.926Z,1.40
2022-08-20T13:35:12.451Z,1.50
2022-08-20T13:38:00.694Z,2.10
2022-08-20T13:40:49.102Z,1.60
2022-08-20T13:43:37.410Z,1.50
2022-08-20T13:46:25.654Z,1.70
2022-08-20T13:49:14.101Z,1.77
2022-08-20T13:52:04.138Z,1.67
2022-08-20T13:54:54.626Z,1.40
2022-08-20T13:57:43.230Z,1.30
2022-08-20T14:00:33.572Z,1.37
2022-08-20T14:03:25.230Z,1.47
2022-08-20T14:06:15.570Z,1.20
2022-08-20T14:09:05.259Z,1.30
2022-08-20T14:11:53.449Z,1.30
2022-08-20T14:14:44.393Z,1.40
2022-08-20T14:17:34.617Z,1.10
2022-08-20T14:20:25.692Z,1.20
2022-08-20T14:23:17.663Z,1.20
2022-08-20T14:26:10.886Z,1.30
2022-08-20T14:28:59.150Z,1.23
2022-08-20T14:31:47.433Z,1.07
2022-08-20T14:34:36.118Z,1.37
2022-08-20T14:37:27.564Z,1.30
2022-08-20T14:40:18.310Z,1.37
2022-08-20T14:43:08.039Z,1.20
2022-08-20T14:45:56.427Z,1.17
2022-08-20T14:48:44.726Z,1.10
2022-08-20T14:51:41.543Z,0.90
2022-08-20T14:54:29.805Z,1.47
2022-08-20T14:57:21.272Z,1.23
2022-08-20T15:00:15.750Z,1.00
2022-08-20T15:03:04.057Z,1.60
2022-08-20T15:05:52.309Z,1.13
2022-08-20T15:08:44.583Z,1.10
2022-08-20T15:11:34.672Z,1.47
2022-08-20T15:14:24.351Z,1.10
2022-08-20T15:17:19.837Z,1.03
2022-08-20T15:20:20.735Z,1.30
2022-08-20T15:23:09.280Z,1.20
2022-08-20T15:25:57.493Z,1.20
2022-08-20T15:28:45.779Z,1.23
2022-08-20T15:31:34.035Z,1.20
2022-08-20T15:34:25.530Z,1.47
2022-08-20T15:37:15.565Z,1.30
2022-08-20T15:40:06.993Z,1.23
2022-08-20T15:42:55.377Z,1.40
2022-08-20T15:45:43.789Z,1.20
2022-08-20T15:48:37.698Z,1.20
2022-08-20T15:51:34.040Z,1.40
2022-08-20T15:54:26.146Z,1.43
2022-08-20T15:57:20.000Z,1.33
2022-08-20T16:00:13.946Z,1.40
2022-08-20T16:03:29.445Z,1.50
2022-08-20T16:06:20.139Z,1.70
2022-08-20T16:09:27.018Z,1.73
2022-08-20T16:12:20.576Z,1.10
2022-08-20T16:15:12.405Z,1.50
2022-08-20T16:18:06.889Z,1.27
2022-08-20T16:20:58.787Z,1.13
2022-08-20T16:23:52.060Z,1.27
2022-08-20T16:27:09.934Z,1.83
2022-08-20T16:30:04.828Z,1.70
2022-08-20T16:33:04.122Z,1.50
2022-08-20T16:35:58.637Z,1.50
2022-08-20T16:38:51.251Z,1.10
2022-08-20T16:41:42.527Z,1.40
2022-08-20T16:44:35.084Z,1.53
2022-08-20T16:47:29.226Z,1.20
2022-08-20T16:50:21.681Z,1.80
2022-08-20T16:53:18.105Z,1.40
2022-08-20T16:56:07.006Z,1.37
2022-08-20T16:58:56.837Z,1.43
2022-08-20T17:01:52.984Z,1.30
2022-08-20T17:04:59.259Z,1.40
2022-08-20T17:07:51.581Z,2.00
2022-08-20T17:10:56.121Z,1.90
2022-08-20T17:13:47.206Z,1.93
2022-08-20T17:16:37.879Z,1.70
2022-08-20T17:19:30.254Z,1.60
2022-08-20T17:22:20.613Z,1.33
2022-08-20T17:25:15.210Z,1.30
2022-08-20T17:28:14.266Z,1.23
2022-08-20T17:31:02.491Z,1.20
2022-08-20T17:33:52.413Z,1.30
2022-08-20T17:36:50.657Z,1.50
2022-08-20T17:39:50.539Z,1.10
2022-08-20T17:42:49.528Z,1.20
2022-08-20T17:45:43.980Z,1.60
2022-08-20T17:48:36.321Z,1.60
2022-08-20T17:51:29.099Z,1.10
2022-08-20T17:54:22.857Z,1.40
2022-08-20T17:57:14.748Z,1.50
2022-08-20T18:00:07.598Z,1.20
2022-08-20T18:03:03.034Z,0.93
2022-08-20T18:06:00.031Z,1.50
2022-08-20T18:08:58.564Z,1.27
2022-08-20T18:11:57.805Z,1.57
2022-08-20T18:14:58.287Z,1.70
2022-08-20T18:18:08.520Z,1.40
2022-08-20T18:21:21.646Z,1.67
2022-08-20T18:24:13.866Z,1.50
2022-08-20T18:27:11.273Z,1.40
2022-08-20T18:30:01.292Z,1.20
2022-08-20T18:32:52.357Z,1.77
2022-08-20T18:35:45.840Z,1.33
2022-08-20T18:38:41.685Z,1.43
2022-08-20T18:41:33.085Z,1.60
2022-08-20T18:44:35.180Z,1.40
2022-08-20T18:47:45.222Z,1.50
2022-08-20T18:50:46.262Z,1.73
2022-08-20T18:53:35.659Z,1.50
2022-08-20T18:56:37.230Z,1.43
2022-08-20T18:59:26.146Z,1.60
2022-08-20T19:02:23.853Z,1.50
2022-08-20T19:05:14.121Z,1.73
2022-08-20T19:08:06.213Z,1.67
2022-08-20T19:10:59.873Z,2.10
2022-08-20T19:14:14.868Z,1.97
2022-08-20T19:17:10.984Z,2.37
2022-08-20T19:20:01.951Z,1.87
2022-08-20T19:22:52.047Z,3.80
2022-08-20T19:25:52.944Z,3.93
2022-08-20T19:28:44.434Z,4.27
2022-08-20T19:31:36.316Z,4.67
2022-08-20T19:34:26.282Z,5.23
2022-08-20T19:37:35.009Z,5.70
2022-08-20T19:40:28.921Z,5.00
2022-08-20T19:43:21.400Z,5.63
2022-08-20T19:46:12.157Z,5.00
2022-08-20T19:49:26.405Z,5.20
2022-08-20T19:52:37.298Z,4.73
2022-08-20T19:55:36.654Z,4.80
2022-08-20T19:58:34.719Z,4.33
2022-08-20T20:01:30.745Z,3.90
2022-08-20T20:04:37.623Z,3.83
2022-08-20T20:08:15.844Z,3.30
2022-08-20T20:11:05.815Z,3.47
2022-08-20T20:13:55.752Z,3.03
2022-08-20T20:16:44.233Z,4.00
2022-08-20T20:20:07.769Z,4.83
2022-08-20T20:23:05.788Z,4.97
2022-08-20T20:25:59.973Z,5.30
2022-08-20T20:28:50.573Z,5.73
2022-08-20T20:31:58.243Z,5.77
2022-08-20T20:35:01.287Z,5.57
2022-08-20T20:38:24.201Z,5.47
2022-08-20T20:41:54.314Z,5.00
2022-08-20T20:45:25.730Z,5.30
2022-08-20T20:48:26.094Z,5.20
2022-08-20T20:51:20.979Z,4.90
2022-08-20T20:54:45.619Z,4.97
2022-08-20T20:57:56.399Z,5.03
2022-08-20T21:00:52.137Z,5.57
2022-08-20T21:04:07.610Z,5.13
2022-08-20T21:07:28.389Z,5.20
2022-08-20T21:10:21.791Z,4.73
2022-08-20T21:13:23.711Z,4.70
2022-08-20T21:16:12.275Z,4.60
2022-08-20T21:22:26.973Z,4.70
2022-08-20T21:25:54.551Z,5.00
2022-08-20T21:28:55.976Z,4.60
2022-08-20T21:32:15.385Z,4.30
2022-08-20T21:35:03.859Z,4.53
2022-08-20T21:38:07.537Z,4.47
2022-08-20T21:41:29.569Z,4.20
2022-08-20T21:44:24.890Z,4.87
2022-08-20T21:47:13.711Z,4.10
2022-08-20T21:53:29.734Z,4.87
2022-08-20T21:56:24.278Z,3.90
2022-08-20T21:59:40.940Z,4.93
2022-08-20T22:02:44.330Z,4.27
2022-08-20T22:05:50.821Z,4.70
2022-08-20T22:12:11.262Z,4.67
2022-08-20T22:16:25.037Z,5.00
2022-08-20T22:19:04.730Z,5.07
2022-08-20T22:22:19.957Z,5.77
2022-08-20T22:25:28.760Z,5.30
2022-08-20T22:28:53.837Z,5.90
2022-08-20T22:31:46.958Z,5.70
2022-08-20T22:34:45.058Z,6.30
2022-08-20T22:37:54.240Z,5.80
2022-08-20T22:40:51.475Z,5.60
2022-08-20T22:43:57.110Z,6.20
2022-08-20T22:46:56.994Z,5.60
2022-08-20T22:49:48.473Z,6.37
2022-08-20T22:53:00.383Z,6.17
2022-08-20T22:56:09.612Z,7.23
2022-08-20T22:59:37.388Z,7.77
2022-08-20T23:03:18.094Z,6.63
2022-08-20T23:06:21.629Z,6.00
2022-08-20T23:09:21.082Z,5.97
2022-08-20T23:12:28.563Z,6.20
2022-08-20T23:15:57.243Z,5.63
2022-08-20T23:19:14.241Z,5.93
2022-08-20T23:22:22.062Z,6.33
2022-08-20T23:25:32.920Z,6.33
2022-08-20T23:28:24.217Z,6.47
2022-08-20T23:31:33.653Z,6.60
2022-08-20T23:34:23.400Z,6.30
2022-08-20T23:37:21.104Z,7.20
2022-08-20T23:40:34.203Z,7.47
2022-08-20T23:43:27.342Z,7.50
2022-08-20T23:46:37.504Z,7.30
2022-08-20T23:49:44.571Z,7.73
2022-08-20T23:52:46.161Z,8.33
2022-08-20T23:55:40.447Z,8.13
2022-08-20T23:58:43.866Z,8.80
